Snow/Ice From: 16-12-2017 16:00 Until: 17-12-2017 16:00 warning for: Snow/Ice Level: Yellow info button

Although rather usual in this region, locally or potentially dangerous phenomena are expected. (such as local winds, summer thunderstorms, rising streams or high waves) Be aware and pay attention to the latest weather updates, especially if you carry out activities exposed to weather or close to a stream or shoreline. 


Meteo18 Weather Cam more information Meteo18 Weather Cam


Thunder radar more information blitzortung!


warning for Snow/Ice more information rain snow radar


Visit our other weather sites:

Template documentation
and downloads

And another site



Weather Underground History page Text

Daily Summary for April 7, 2017 Units:  English    Metric   Both
« Previous Day
Next Day »
Daily Weekly Monthly Yearly Custom
  High: Low: Average:
Temperature: 64.4 °F 38.5 °F 50.5 °F
Dew Point: 46.6 °F 35.2 °F 40.6 °F
Humidity: 89 % 47 % 70 %
Wind Speed: 12 mph 0 mph 3.7 mph
Wind Gust: 17 mph - -
Wind:- - ESE
Pressure: 30.4 in 30.2 in -
Precipitation: 0 in    
Historical Graphs
 
 
Tabular Data for April 7, 2017
Time Temperature Dew Point Pressure Wind Wind Speed Wind Gust Humidity Rainfall Rate (Hourly)
00:02 42.6 °F 37.2 °F 30.4 in NNW 1 mph 4 mph 81 % 0 in
00:07 42.6 °F 37.2 °F 30.4 in NNE 2 mph 3 mph 81 % 0 in
00:12 42.4 °F 37 °F 30.4 in NNE 2 mph 3 mph 81 % 0 in
00:17 42.4 °F 37.4 °F 30.4 in NNW 2 mph 4 mph 82 % 0 in
00:22 42.3 °F 36.9 °F 30.4 in NW 1 mph 4 mph 81 % 0 in
00:27 42.3 °F 37.2 °F 30.4 in Calm   4 mph 82 % 0 in
00:32 42.1 °F 37 °F 30.4 in Calm   3 mph 82 % 0 in
00:37 42.1 °F 37 °F 30.4 in NNW 2 mph 3 mph 82 % 0 in
00:47 41.9 °F 37 °F 30.4 in NNW 1 mph 3 mph 83 % 0 in
00:52 42.1 °F 37 °F 30.4 in NW 2 mph 3 mph 82 % 0 in
00:57 42.1 °F 37.2 °F 30.4 in NW 1 mph 3 mph 83 % 0 in
01:02 42.1 °F 37 °F 30.4 in NW 1 mph 3 mph 82 % 0 in
01:12 42.1 °F 37 °F 30.4 in NW 2 mph 3 mph 82 % 0 in
01:17 42.1 °F 37 °F 30.4 in NNW 1 mph 5 mph 82 % 0 in
01:22 42.1 °F 37.2 °F 30.4 in NW 2 mph 5 mph 83 % 0 in
01:27 42.1 °F 37.2 °F 30.4 in NNW 1 mph 5 mph 83 % 0 in
01:32 41.9 °F 37 °F 30.4 in NW 3 mph 5 mph 83 % 0 in
01:37 41.7 °F 36.9 °F 30.4 in WNW 2 mph 5 mph 83 % 0 in
01:42 41.5 °F 36.7 °F 30.4 in NNW 2 mph 4 mph 83 % 0 in
01:47 41.5 °F 36.7 °F 30.4 in NNW 1 mph 4 mph 83 % 0 in
01:52 41.5 °F 37 °F 30.4 in NNW 2 mph 4 mph 84 % 0 in
01:57 41.4 °F 36.9 °F 30.4 in North 1 mph 4 mph 84 % 0 in
02:02 41.4 °F 36.9 °F 30.3 in NW 3 mph 5 mph 84 % 0 in
02:07 41.4 °F 36.9 °F 30.3 in NW 2 mph 5 mph 84 % 0 in
02:12 41.2 °F 36.7 °F 30.3 in NW 1 mph 5 mph 84 % 0 in
02:17 41.2 °F 36.7 °F 30.3 in NW 3 mph 5 mph 84 % 0 in
02:22 41.2 °F 37 °F 30.3 in NNW 1 mph 5 mph 85 % 0 in
02:27 41.2 °F 37 °F 30.3 in NW 1 mph 4 mph 85 % 0 in
02:32 41.2 °F 37 °F 30.3 in NNW 3 mph 4 mph 85 % 0 in
02:37 41 °F 36.9 °F 30.3 in NNW 1 mph 4 mph 85 % 0 in
02:42 40.8 °F 36.7 °F 30.3 in North 2 mph 6 mph 85 % 0 in
02:47 40.8 °F 36.7 °F 30.3 in NE 2 mph 6 mph 85 % 0 in
02:52 40.8 °F 36.7 °F 30.3 in NNW 2 mph 6 mph 85 % 0 in
02:57 40.8 °F 36.7 °F 30.3 in NW 2 mph 6 mph 85 % 0 in
03:07 40.8 °F 36.7 °F 30.3 in North 2 mph 7 mph 85 % 0 in
03:12 40.8 °F 36.7 °F 30.3 in NNW 2 mph 7 mph 85 % 0 in
03:17 40.8 °F 36.7 °F 30.3 in NNW 2 mph 7 mph 85 % 0 in
03:22 40.6 °F 36.5 °F 30.3 in NNE 3 mph 6 mph 85 % 0 in
03:27 40.6 °F 36.5 °F 30.3 in North 1 mph 6 mph 85 % 0 in
03:32 40.5 °F 36.7 °F 30.3 in NNW 2 mph 4 mph 86 % 0 in
03:37 40.5 °F 36.7 °F 30.3 in NNW 2 mph 4 mph 86 % 0 in
03:42 40.5 °F 36.7 °F 30.3 in North 1 mph 3 mph 86 % 0 in
03:47 40.5 °F 36.7 °F 30.3 in North 1 mph 3 mph 86 % 0 in
03:52 40.3 °F 36.5 °F 30.3 in North 2 mph 3 mph 86 % 0 in
03:57 40.3 °F 36.5 °F 30.3 in North 2 mph 3 mph 86 % 0 in
04:02 40.5 °F 36.7 °F 30.3 in Calm   6 mph 86 % 0 in
04:07 40.5 °F 36.7 °F 30.3 in NW 2 mph 6 mph 86 % 0 in
04:12 40.3 °F 36.5 °F 30.3 in North 2 mph 6 mph 86 % 0 in
04:17 40.3 °F 36.5 °F 30.3 in NNW 3 mph 4 mph 86 % 0 in
04:22 40.3 °F 36.5 °F 30.3 in North 2 mph 5 mph 86 % 0 in
04:27 40.3 °F 36.5 °F 30.3 in North 4 mph 5 mph 86 % 0 in
04:32 39.9 °F 36.1 °F 30.3 in North 3 mph 5 mph 86 % 0 in
04:37 39.9 °F 36.1 °F 30.3 in North 3 mph 6 mph 86 % 0 in
04:42 39.7 °F 36.1 °F 30.3 in North 2 mph 6 mph 87 % 0 in
04:52 39.6 °F 36 °F 30.3 in NNW 2 mph 6 mph 87 % 0 in
04:57 39.6 °F 36 °F 30.3 in North 3 mph 5 mph 87 % 0 in
05:02 39.6 °F 36 °F 30.3 in North 2 mph 5 mph 87 % 0 in
05:12 39.6 °F 36 °F 30.3 in NNW 2 mph 6 mph 87 % 0 in
05:17 39.6 °F 36 °F 30.3 in NNE 3 mph 6 mph 87 % 0 in
05:22 39.6 °F 36 °F 30.3 in Calm   6 mph 87 % 0 in
05:27 39.6 °F 36 °F 30.3 in NNE 2 mph 4 mph 87 % 0 in
05:32 39.7 °F 36.1 °F 30.3 in NW 4 mph 5 mph 87 % 0 in
05:37 39.7 °F 36.1 °F 30.3 in NNE 4 mph 5 mph 87 % 0 in
05:42 39.7 °F 36 °F 30.3 in NNE 2 mph 7 mph 86 % 0 in
05:47 39.6 °F 36 °F 30.3 in North 2 mph 7 mph 87 % 0 in
05:52 39.4 °F 35.8 °F 30.3 in North 2 mph 7 mph 87 % 0 in
05:57 39 °F 35.4 °F 30.3 in NNE 3 mph 7 mph 87 % 0 in
06:02 39 °F 35.4 °F 30.3 in North 4 mph 7 mph 87 % 0 in
06:07 38.8 °F 35.2 °F 30.3 in North 2 mph 7 mph 87 % 0 in
06:12 38.8 °F 35.2 °F 30.3 in NE 3 mph 5 mph 87 % 0 in
06:17 38.7 °F 35.4 °F 30.3 in North 5 mph 5 mph 88 % 0 in
06:22 38.8 °F 35.6 °F 30.3 in North 4 mph 5 mph 88 % 0 in
06:27 39 °F 35.8 °F 30.3 in North 1 mph 5 mph 88 % 0 in
06:32 39 °F 35.8 °F 30.3 in NNE 2 mph 7 mph 88 % 0 in
06:37 38.8 °F 35.6 °F 30.3 in North 3 mph 7 mph 88 % 0 in
06:42 38.8 °F 35.6 °F 30.3 in Calm   7 mph 88 % 0 in
06:47 38.7 °F 35.4 °F 30.3 in NNW 4 mph 7 mph 88 % 0 in
06:57 38.5 °F 35.2 °F 30.3 in NNE 2 mph 6 mph 88 % 0 in
07:02 38.5 °F 35.6 °F 30.3 in NW 2 mph 5 mph 89 % 0 in
07:12 38.5 °F 35.6 °F 30.3 in Calm   6 mph 89 % 0 in
07:17 38.5 °F 35.6 °F 30.3 in NNE 3 mph 6 mph 89 % 0 in
07:22 38.5 °F 35.6 °F 30.3 in NNW 6 mph 6 mph 89 % 0 in
07:32 38.8 °F 35.6 °F 30.3 in NNE 3 mph 8 mph 88 % 0 in
07:37 38.8 °F 35.6 °F 30.3 in North 2 mph 8 mph 88 % 0 in
07:42 38.8 °F 35.6 °F 30.3 in NNE 3 mph 5 mph 88 % 0 in
07:47 39 °F 35.8 °F 30.3 in North 2 mph 5 mph 88 % 0 in
07:57 39.6 °F 36.3 °F 30.3 in NNE 2 mph 5 mph 88 % 0 in
08:02 39.7 °F 36.1 °F 30.3 in NE 2 mph 5 mph 87 % 0 in
08:07 39.9 °F 36.3 °F 30.3 in NNE 1 mph 8 mph 87 % 0 in
08:12 40.3 °F 36.7 °F 30.3 in NNW 2 mph 8 mph 87 % 0 in
08:17 40.3 °F 36.7 °F 30.3 in NNE 4 mph 8 mph 87 % 0 in
08:22 40.6 °F 37 °F 30.3 in NE 2 mph 7 mph 87 % 0 in
08:32 41 °F 37.2 °F 30.3 in NNW 3 mph 7 mph 86 % 0 in
08:37 41.4 °F 37.6 °F 30.3 in NE 3 mph 7 mph 86 % 0 in
08:42 41.5 °F 37.4 °F 30.3 in NW 2 mph 6 mph 85 % 0 in
08:47 41.7 °F 37.2 °F 30.3 in NE 6 mph 8 mph 84 % 0 in
08:52 42.1 °F 37.2 °F 30.3 in NNE 3 mph 8 mph 83 % 0 in
08:57 42.4 °F 37.6 °F 30.3 in ENE 1 mph 8 mph 83 % 0 in
09:02 42.6 °F 37.6 °F 30.3 in NNE 5 mph 8 mph 82 % 0 in
09:12 43.3 °F 38.3 °F 30.3 in NE 2 mph 10 mph 82 % 0 in
09:17 43.5 °F 38.1 °F 30.3 in ENE 4 mph 10 mph 81 % 0 in
09:22 43.7 °F 37.9 °F 30.3 in NNE 7 mph 9 mph 80 % 0 in
09:27 44.1 °F 37.9 °F 30.3 in NNE 8 mph 10 mph 79 % 0 in
09:32 44.2 °F 38.5 °F 30.3 in NE 4 mph 10 mph 80 % 0 in
09:37 44.4 °F 38.3 °F 30.3 in NNE 6 mph 10 mph 79 % 0 in
09:42 44.6 °F 38.5 °F 30.3 in NE 5 mph 9 mph 79 % 0 in
09:47 45 °F 38.5 °F 30.3 in NNE 6 mph 9 mph 78 % 0 in
09:52 45.1 °F 38.7 °F 30.3 in ENE 1 mph 8 mph 78 % 0 in
09:57 45.5 °F 38.7 °F 30.3 in NE 5 mph 8 mph 77 % 0 in
10:02 45.9 °F 39 °F 30.3 in NE 7 mph 10 mph 77 % 0 in
10:12 46.6 °F 39 °F 30.3 in NNE 7 mph 10 mph 75 % 0 in
10:17 46.6 °F 39 °F 30.3 in NNE 4 mph 11 mph 75 % 0 in
10:22 47.1 °F 39.2 °F 30.3 in NE 7 mph 13 mph 74 % 0 in
10:32 47.8 °F 39.2 °F 30.3 in NE 3 mph 13 mph 72 % 0 in
10:42 48.9 °F 39.9 °F 30.3 in East 1 mph 11 mph 71 % 0 in
10:47 49.1 °F 40.1 °F 30.3 in ENE 4 mph 10 mph 71 % 0 in
10:52 48.9 °F 39.2 °F 30.3 in NE 5 mph 9 mph 69 % 0 in
10:57 49.3 °F 39.9 °F 30.3 in North 6 mph 11 mph 70 % 0 in
11:02 49.6 °F 39.6 °F 30.3 in NE 9 mph 11 mph 68 % 0 in
11:07 50.2 °F 40.5 °F 30.3 in NE 4 mph 11 mph 69 % 0 in
11:12 50.2 °F 39.2 °F 30.3 in NE 8 mph 11 mph 66 % 0 in
11:17 50.4 °F 39.4 °F 30.3 in ENE 2 mph 11 mph 66 % 0 in
11:22 50.5 °F 39.6 °F 30.3 in NNE 5 mph 11 mph 66 % 0 in
11:27 50.9 °F 40.3 °F 30.3 in North 5 mph 11 mph 67 % 0 in
11:32 51.1 °F 39.7 °F 30.3 in NNE 6 mph 10 mph 65 % 0 in
11:37 51.4 °F 40.1 °F 30.3 in ENE 8 mph 12 mph 65 % 0 in
11:42 52 °F 39.7 °F 30.3 in NNE 5 mph 12 mph 63 % 0 in
11:47 52.2 °F 39.9 °F 30.3 in NNE 5 mph 10 mph 63 % 0 in
11:52 52.3 °F 40.5 °F 30.3 in East 6 mph 10 mph 64 % 0 in
12:02 53.4 °F 41.2 °F 30.3 in ENE 3 mph 9 mph 63 % 0 in
12:07 53.2 °F 39.7 °F 30.3 in NNW 3 mph 10 mph 60 % 0 in
12:12 53.8 °F 40.6 °F 30.3 in NNW 8 mph 10 mph 61 % 0 in
12:17 54 °F 39.9 °F 30.3 in ENE 6 mph 13 mph 59 % 0 in
12:22 54 °F 39.6 °F 30.3 in NNE 10 mph 13 mph 58 % 0 in
12:27 54 °F 39.9 °F 30.3 in ENE 5 mph 13 mph 59 % 0 in
12:32 54.5 °F 40.1 °F 30.3 in NE 6 mph 13 mph 58 % 0 in
12:37 54.9 °F 39.9 °F 30.3 in NE 5 mph 11 mph 57 % 0 in
12:42 54.7 °F 39.7 °F 30.3 in East 4 mph 15 mph 57 % 0 in
12:47 55.2 °F 40.3 °F 30.3 in NE 4 mph 17 mph 57 % 0 in
12:52 55.6 °F 39.7 °F 30.3 in ENE 5 mph 17 mph 55 % 0 in
12:57 55.8 °F 40.8 °F 30.3 in ENE 6 mph 14 mph 57 % 0 in
13:02 55.8 °F 39.9 °F 30.3 in NE 7 mph 14 mph 55 % 0 in
13:07 56.5 °F 41 °F 30.3 in NE 5 mph 16 mph 56 % 0 in
13:12 56.8 °F 42.3 °F 30.3 in NE 4 mph 16 mph 58 % 0 in
13:17 57.6 °F 41.5 °F 30.3 in East 9 mph 14 mph 55 % 0 in
13:22 57.6 °F 41 °F 30.3 in ENE 4 mph 11 mph 54 % 0 in
13:27 57.7 °F 41.7 °F 30.3 in NNE 4 mph 11 mph 55 % 0 in
13:32 57.7 °F 42.6 °F 30.3 in NE 3 mph 11 mph 57 % 0 in
13:37 57.9 °F 41.4 °F 30.3 in NE 5 mph 13 mph 54 % 0 in
13:42 57.9 °F 41.9 °F 30.3 in North 2 mph 13 mph 55 % 0 in
13:47 58.5 °F 43.3 °F 30.3 in ENE 7 mph 12 mph 57 % 0 in
13:52 58.6 °F 42.4 °F 30.3 in NNE 9 mph 10 mph 55 % 0 in
13:57 58.6 °F 41.5 °F 30.3 in NE 4 mph 11 mph 53 % 0 in
14:02 58.8 °F 42.6 °F 30.3 in North 3 mph 15 mph 55 % 0 in
14:07 59.5 °F 42.4 °F 30.3 in ENE 4 mph 15 mph 53 % 0 in
14:12 59.9 °F 42.8 °F 30.3 in NE 6 mph 15 mph 53 % 0 in
14:17 59.4 °F 41.7 °F 30.3 in NE 5 mph 13 mph 52 % 0 in
14:22 59.7 °F 43 °F 30.3 in ESE 3 mph 13 mph 54 % 0 in
14:27 59.7 °F 42.6 °F 30.3 in ENE 9 mph 13 mph 53 % 0 in
14:37 60.4 °F 43.7 °F 30.3 in NE 6 mph 13 mph 54 % 0 in
14:42 61 °F 44.2 °F 30.3 in NE 7 mph 11 mph 54 % 0 in
14:47 60.6 °F 43.3 °F 30.3 in East 5 mph 10 mph 53 % 0 in
14:52 60.4 °F 42.8 °F 30.3 in NNE 5 mph 11 mph 52 % 0 in
14:57 60.6 °F 43 °F 30.3 in NNE 7 mph 11 mph 52 % 0 in
15:02 61 °F 43.7 °F 30.3 in NNW 5 mph 11 mph 53 % 0 in
15:07 61.2 °F 44.8 °F 30.3 in NE 6 mph 10 mph 55 % 0 in
15:12 61.3 °F 45 °F 30.3 in ENE 4 mph 11 mph 55 % 0 in
15:17 61.5 °F 44.2 °F 30.3 in East 2 mph 11 mph 53 % 0 in
15:27 61.5 °F 42.6 °F 30.3 in East 4 mph 11 mph 50 % 0 in
15:32 61.5 °F 43.7 °F 30.3 in NNW 4 mph 11 mph 52 % 0 in
15:37 62.1 °F 44.2 °F 30.3 in NE 7 mph 11 mph 52 % 0 in
15:42 62.2 °F 45.3 °F 30.3 in NNE 2 mph 9 mph 54 % 0 in
15:47 62.4 °F 44.6 °F 30.3 in East 2 mph 8 mph 52 % 0 in
15:52 62.2 °F 43.3 °F 30.3 in NE 5 mph 8 mph 50 % 0 in
15:57 62.4 °F 45.1 °F 30.3 in East 3 mph 10 mph 53 % 0 in
16:02 62.8 °F 45.3 °F 30.3 in ENE 3 mph 10 mph 53 % 0 in
16:07 63 °F 44.6 °F 30.3 in NNE 5 mph 9 mph 51 % 0 in
16:12 63 °F 44.1 °F 30.3 in ENE 3 mph 9 mph 50 % 0 in
16:22 63 °F 44.6 °F 30.3 in ENE 4 mph 12 mph 51 % 0 in
16:27 63.1 °F 44.8 °F 30.3 in NNE 9 mph 12 mph 51 % 0 in
16:32 63 °F 44.6 °F 30.3 in North 10 mph 12 mph 51 % 0 in
16:37 63.3 °F 44.4 °F 30.3 in ENE 5 mph 12 mph 50 % 0 in
16:42 63.5 °F 44.1 °F 30.3 in ENE 10 mph 14 mph 49 % 0 in
16:47 63.9 °F 44.8 °F 30.3 in NE 5 mph 14 mph 50 % 0 in
16:52 63.7 °F 43.7 °F 30.3 in NE 12 mph 12 mph 48 % 0 in
16:57 63.9 °F 43.2 °F 30.3 in NNE 7 mph 15 mph 47 % 0 in
17:02 63.7 °F 43.7 °F 30.3 in NE 5 mph 15 mph 48 % 0 in
17:07 63.9 °F 43.7 °F 30.3 in ENE 5 mph 13 mph 48 % 0 in
17:12 63.9 °F 44.8 °F 30.3 in NNE 9 mph 13 mph 50 % 0 in
17:17 63.9 °F 44.2 °F 30.3 in NE 8 mph 12 mph 49 % 0 in
17:22 64.2 °F 45.1 °F 30.3 in ENE 2 mph 12 mph 50 % 0 in
17:27 64.2 °F 44.6 °F 30.3 in ENE 9 mph 12 mph 49 % 0 in
17:32 64.4 °F 45.9 °F 30.2 in ENE 4 mph 13 mph 51 % 0 in
17:37 64.2 °F 45.1 °F 30.2 in NE 9 mph 13 mph 50 % 0 in
17:42 64.2 °F 45.1 °F 30.2 in East 8 mph 13 mph 50 % 0 in
17:47 64.2 °F 45.1 °F 30.2 in NE 9 mph 12 mph 50 % 0 in
17:52 64 °F 45 °F 30.2 in ENE 9 mph 12 mph 50 % 0 in
18:02 64.2 °F 45.7 °F 30.2 in NE 3 mph 13 mph 51 % 0 in
18:12 64.2 °F 45.7 °F 30.2 in NNE 4 mph 11 mph 51 % 0 in
18:17 64.2 °F 45.7 °F 30.2 in NE 8 mph 11 mph 51 % 0 in
18:22 64.2 °F 46.2 °F 30.2 in ENE 9 mph 10 mph 52 % 0 in
18:27 64.2 °F 46.2 °F 30.2 in ENE 7 mph 10 mph 52 % 0 in
18:32 64 °F 46.6 °F 30.2 in NE 5 mph 10 mph 53 % 0 in
18:37 64 °F 45.5 °F 30.2 in ENE 3 mph 10 mph 51 % 0 in
18:42 64 °F 46.6 °F 30.2 in ENE 6 mph 10 mph 53 % 0 in
18:47 63.9 °F 46.4 °F 30.2 in NE 5 mph 9 mph 53 % 0 in
18:52 63.5 °F 46 °F 30.2 in NE 8 mph 11 mph 53 % 0 in
18:57 63.3 °F 45.9 °F 30.2 in ENE 4 mph 12 mph 53 % 0 in
19:07 63.3 °F 46.4 °F 30.2 in NE 3 mph 11 mph 54 % 0 in
19:12 63 °F 45.5 °F 30.3 in East 7 mph 11 mph 53 % 0 in
19:22 62.6 °F 45.7 °F 30.3 in ENE 5 mph 9 mph 54 % 0 in
19:27 62.4 °F 45.5 °F 30.3 in ENE 5 mph 9 mph 54 % 0 in
19:32 62.2 °F 45.9 °F 30.3 in ENE 4 mph 9 mph 55 % 0 in
19:37 62.1 °F 45.7 °F 30.3 in ENE 5 mph 9 mph 55 % 0 in
19:42 61.9 °F 45.5 °F 30.3 in NE 2 mph 8 mph 55 % 0 in
19:47 61.5 °F 45.7 °F 30.3 in ENE 5 mph 8 mph 56 % 0 in
19:52 61.2 °F 45.3 °F 30.3 in NE 4 mph 8 mph 56 % 0 in
19:57 60.8 °F 45 °F 30.3 in ENE 3 mph 8 mph 56 % 0 in
20:02 60.4 °F 45.1 °F 30.3 in NE 3 mph 7 mph 57 % 0 in
20:07 60.1 °F 45.3 °F 30.3 in NNE 4 mph 7 mph 58 % 0 in
20:12 59.5 °F 44.8 °F 30.3 in NE 3 mph 7 mph 58 % 0 in
20:17 59.2 °F 44.8 °F 30.3 in NE 4 mph 7 mph 59 % 0 in
20:22 58.8 °F 45 °F 30.3 in NE 4 mph 7 mph 60 % 0 in
20:27 58.6 °F 44.8 °F 30.3 in NNE 5 mph 6 mph 60 % 0 in
20:42 58.3 °F 44.4 °F 30.3 in NE 5 mph 8 mph 60 % 0 in
20:47 57.9 °F 44.6 °F 30.3 in NE 4 mph 8 mph 61 % 0 in
20:52 57.7 °F 44.8 °F 30.3 in NE 4 mph 7 mph 62 % 0 in
20:57 57.6 °F 45.1 °F 30.3 in NNE 6 mph 7 mph 63 % 0 in
21:02 57.4 °F 45.3 °F 30.3 in NNE 7 mph 9 mph 64 % 0 in
21:07 56.7 °F 45.5 °F 30.3 in NE 2 mph 9 mph 66 % 0 in
21:12 55.9 °F 45.1 °F 30.3 in NNW 3 mph 9 mph 67 % 0 in
21:17 55.6 °F 45.1 °F 30.3 in NNW 2 mph 7 mph 68 % 0 in
21:22 55.2 °F 45.1 °F 30.3 in North 2 mph 6 mph 69 % 0 in
21:27 55 °F 45.1 °F 30.3 in NNW 3 mph 6 mph 69 % 0 in
21:32 54.9 °F 45 °F 30.3 in NNW 2 mph 5 mph 69 % 0 in
21:37 54.3 °F 44.8 °F 30.3 in North 4 mph 5 mph 70 % 0 in
21:42 54.1 °F 44.6 °F 30.3 in NNE 3 mph 5 mph 70 % 0 in
21:47 54 °F 44.8 °F 30.3 in North 4 mph 5 mph 71 % 0 in
21:52 53.4 °F 44.2 °F 30.3 in NNW 2 mph 5 mph 71 % 0 in
21:57 53.2 °F 44.4 °F 30.3 in NNE 2 mph 5 mph 72 % 0 in
22:02 53.1 °F 44.6 °F 30.3 in North 3 mph 5 mph 73 % 0 in
22:07 53.2 °F 44.8 °F 30.3 in NNW 3 mph 4 mph 73 % 0 in
22:17 53.2 °F 44.4 °F 30.3 in North 2 mph 5 mph 72 % 0 in
22:22 53.2 °F 44.4 °F 30.3 in Calm   5 mph 72 % 0 in
22:27 52.9 °F 44.1 °F 30.3 in NE 1 mph 6 mph 72 % 0 in
22:32 52.7 °F 44.2 °F 30.3 in North 1 mph 6 mph 73 % 0 in
22:37 52.5 °F 44.1 °F 30.3 in Calm   6 mph 73 % 0 in
22:42 52.9 °F 44.4 °F 30.3 in NNE 5 mph 6 mph 73 % 0 in
22:47 52.9 °F 44.1 °F 30.3 in NNE 3 mph 6 mph 72 % 0 in
22:52 52.9 °F 44.1 °F 30.3 in NNE 4 mph 6 mph 72 % 0 in
22:57 52.7 °F 44.2 °F 30.3 in NNE 2 mph 6 mph 73 % 0 in
23:02 52.5 °F 44.1 °F 30.3 in NNE 3 mph 6 mph 73 % 0 in
23:07 52.5 °F 44.1 °F 30.3 in NNE 2 mph 8 mph 73 % 0 in
23:12 52.3 °F 43.9 °F 30.3 in North 2 mph 8 mph 73 % 0 in
23:17 52.2 °F 44.1 °F 30.3 in NNE 2 mph 8 mph 74 % 0 in
23:22 52 °F 43.9 °F 30.3 in NE 2 mph 4 mph 74 % 0 in
23:27 52 °F 43.9 °F 30.3 in NNE 4 mph 5 mph 74 % 0 in
23:32 52 °F 43.9 °F 30.3 in NE 3 mph 5 mph 74 % 0 in
23:37 51.8 °F 43.7 °F 30.3 in NE 4 mph 5 mph 74 % 0 in
23:42 52.2 °F 44.1 °F 30.3 in NNE 4 mph 7 mph 74 % 0 in
23:47 52 °F 43.9 °F 30.3 in North 2 mph 8 mph 74 % 0 in
23:57 51.4 °F 43.7 °F 30.3 in NNE 1 mph 6 mph 75 % 0 in
Meteo18
Compliments of Weather Underground - 4 mb

Script developed by  Jim McMurry - jmcmurry@mwt.net Adapted for the template by  Wim van der Kuil - Leuven-Template.eu

You find our weather info also at:

European Weather Network

Weather Underground

Equipment we use:

Weather-station
Davis Vue

Weather-program
Meteohub

Weather-server
Raspberry PI 2 B+

Provider
1 and 1

Davis Vue

Meteohub

Raspberry PI 2 B+

1 and 1